Time;durP1;ratioP1;P1;durP2;ratioP2;P2;SDS_P1;SDS_P2;PMS_P1;PMS_P2;Temp;Humidity;BMP_temperature;BMP_pressure;BME280_temperature;BME280_humidity;BME280_pressure;Samples;Min_cycle;Max_cycle;Signal;HPM_P1;HPM_P2
2021/06/12 15:16:48;;;;;;;4.60;2.95;;;;;;;24.24;59.53;99784.13;5114545;27;96992;-90
2021/06/12 15:19:13;;;;;;;5.05;3.40;;;;;;;24.16;59.76;99784.88;5077475;27;96763;-96
2021/06/12 15:21:39;;;;;;;4.82;3.78;;;;;;;24.05;60.11;99773.53;5064653;27;100894;-94
2021/06/12 15:24:06;;;;;;;5.60;3.30;;;;;;;24.05;60.51;99762.81;5068825;27;100148;-93
2021/06/12 15:26:31;;;;;;;3.63;3.22;;;;;;;24.13;60.12;99761.06;5055559;27;96700;-92
2021/06/12 15:28:58;;;;;;;3.60;3.30;;;;;;;24.23;60.06;99754.78;5051772;27;96844;-92
2021/06/12 15:31:23;;;;;;;5.47;2.95;;;;;;;24.05;60.21;99757.44;5078251;27;98395;-93
2021/06/12 15:33:49;;;;;;;4.47;3.42;;;;;;;24.06;60.18;99751.94;5065454;27;101411;-93
2021/06/12 15:36:14;;;;;;;4.25;3.20;;;;;;;23.99;60.47;99744.66;5065576;27;96706;-93
2021/06/12 15:38:40;;;;;;;4.07;2.97;;;;;;;24.12;60.38;99745.13;5079783;27;96899;-94
2021/06/12 15:41:06;;;;;;;4.00;3.20;;;;;;;24.18;60.27;99744.53;5055844;27;101751;-93
2021/06/12 15:43:32;;;;;;;4.85;3.17;;;;;;;24.07;60.23;99750.94;5101546;27;97802;-94
2021/06/12 15:45:58;;;;;;;4.88;3.80;;;;;;;24.07;60.25;99764.34;5066183;27;97303;-92
2021/06/12 15:48:23;;;;;;;7.38;3.88;;;;;;;23.95;61.04;99755.69;5082177;27;97235;-94
2021/06/12 15:50:50;;;;;;;5.78;3.75;;;;;;;23.76;61.21;99761.16;5065601;27;101170;-93
2021/06/12 15:53:16;;;;;;;12.63;4.45;;;;;;;23.67;62.03;99770.06;5055155;27;101149;-94
2021/06/12 15:55:43;;;;;;;5.90;3.80;;;;;;;23.90;61.38;99765.19;5074735;27;96799;-94
2021/06/12 15:58:09;;;;;;;4.05;3.40;;;;;;;23.97;61.13;99778.81;5097816;27;97434;-95
2021/06/12 16:00:35;;;;;;;8.05;3.75;;;;;;;24.07;60.81;99772.41;5052612;27;99107;-95
2021/06/12 16:03:00;;;;;;;4.15;3.65;;;;;;;23.99;61.13;99768.78;5077594;27;101134;-94
2021/06/12 16:05:26;;;;;;;7.75;3.95;;;;;;;23.86;61.71;99774.53;5056004;27;97251;-96
2021/06/12 16:07:52;;;;;;;4.10;3.53;;;;;;;23.76;61.84;99766.53;5068156;27;96927;-95
2021/06/12 16:10:17;;;;;;;5.88;4.30;;;;;;;23.89;61.75;99764.34;5070711;27;101287;-92
2021/06/12 16:12:45;;;;;;;6.35;3.72;;;;;;;23.81;61.84;99766.09;5076569;27;99814;-92
2021/06/12 16:15:13;;;;;;;5.57;4.07;;;;;;;23.68;61.99;99755.72;5072525;27;97332;-93
2021/06/12 16:17:39;;;;;;;6.50;4.10;;;;;;;23.70;62.28;99767.13;5065373;27;97442;-92
2021/06/12 16:20:07;;;;;;;5.78;4.45;;;;;;;23.86;61.75;99771.84;5064347;27;100189;-94
2021/06/12 16:22:33;;;;;;;5.57;3.88;;;;;;;23.74;62.05;99771.22;5066371;27;101338;-93
2021/06/12 16:24:59;;;;;;;5.47;4.10;;;;;;;23.68;62.44;99775.31;5045171;27;96843;-86
2021/06/12 16:27:24;;;;;;;7.40;4.07;;;;;;;23.70;61.99;99770.66;5068407;27;96816;-93
2021/06/12 16:29:50;;;;;;;6.43;4.57;;;;;;;23.78;61.98;99769.91;5065429;27;101418;-93
2021/06/12 16:32:15;;;;;;;7.05;4.80;;;;;;;23.65;62.49;99775.59;5047899;27;101384;-91
2021/06/12 16:34:41;;;;;;;6.00;4.35;;;;;;;23.62;62.75;99783.94;5060061;27;96803;-91
2021/06/12 16:37:06;;;;;;;7.90;4.05;;;;;;;23.47;62.88;99782.72;5045495;27;96801;-91
2021/06/12 16:39:32;;;;;;;8.48;5.18;;;;;;;23.46;63.28;99770.34;5052262;27;101287;-92
2021/06/12 16:41:58;;;;;;;4.90;4.32;;;;;;;23.46;63.23;99765.81;5062189;27;98256;-93
2021/06/12 16:44:23;;;;;;;8.85;5.45;;;;;;;23.34;63.71;99756.28;5050821;27;96718;-92
2021/06/12 16:46:49;;;;;;;9.48;4.90;;;;;;;23.33;64.17;99759.97;5062157;27;97097;-92
2021/06/12 16:49:14;;;;;;;7.07;4.47;;;;;;;23.38;63.42;99780.94;5061305;27;101362;-87
2021/06/12 16:51:40;;;;;;;8.75;5.07;;;;;;;23.42;63.85;99785.88;5043868;27;101033;-86
2021/06/12 16:54:15;;;;;;;7.68;5.15;;;;;;;23.55;63.25;99839.06;5037410;27;96664;-88
2021/06/12 16:57:05;;;;;;;5.93;3.45;;;;;;;23.48;61.05;99846.88;5058212;27;97894;-88
2021/06/12 16:59:29;;;;;;;6.55;2.95;;;;;;;23.14;59.79;99857.25;5059630;27;100298;-88
2021/06/12 17:01:54;;;;;;;5.85;2.38;;;;;;;22.94;59.49;99864.44;5055531;27;101466;-88
2021/06/12 17:04:20;;;;;;;7.10;2.28;;;;;;;22.73;59.02;99853.88;5051811;27;97496;-88
2021/06/12 17:06:45;;;;;;;2.97;1.58;;;;;;;22.67;59.28;99858.97;5053489;27;96785;-86
2021/06/12 17:09:11;;;;;;;4.28;1.95;;;;;;;22.24;59.78;99860.19;5056868;27;101878;-89
2021/06/12 17:11:36;;;;;;;2.92;2.17;;;;;;;22.24;59.78;99876.22;5034450;27;100958;-90
2021/06/12 17:14:03;;;;;;;1.48;1.30;;;;;;;22.26;59.67;99877.78;5059247;27;96685;-90
2021/06/12 17:16:28;;;;;;;3.38;1.67;;;;;;;22.18;59.43;99890.16;5046502;27;96865;-90
2021/06/12 17:18:54;;;;;;;5.13;1.75;;;;;;;21.86;60.12;99900.00;5059882;27;97964;-90
2021/06/12 17:21:21;;;;;;;4.32;1.55;;;;;;;21.85;60.14;99909.00;5065664;27;98455;-90
2021/06/12 17:23:47;;;;;;;3.50;1.75;;;;;;;21.84;60.13;99914.47;5057048;27;96972;-89
2021/06/12 17:26:13;;;;;;;2.00;1.55;;;;;;;21.74;60.27;99927.78;5058233;27;96834;-89
2021/06/12 17:28:40;;;;;;;2.53;1.38;;;;;;;21.57;60.43;99933.75;5028759;27;100761;-88
2021/06/12 17:31:06;;;;;;;4.00;1.35;;;;;;;21.48;60.82;99941.56;5043708;27;101213;-88
2021/06/12 17:33:35;;;;;;;2.83;1.60;;;;;;;21.33;60.79;99955.34;5059967;27;96928;-88
2021/06/12 17:36:08;;;;;;;2.45;1.38;;;;;;;21.31;61.28;99955.47;5037849;27;96987;-88
2021/06/12 17:38:34;;;;;;;2.40;1.88;;;;;;;21.31;61.13;99952.78;5058576;27;101539;-86
2021/06/12 17:41:01;;;;;;;3.17;1.85;;;;;;;21.27;61.07;99947.88;5051044;27;99574;-86
2021/06/12 17:43:26;;;;;;;4.75;1.88;;;;;;;21.20;61.36;99956.34;5057581;27;96804;-87
2021/06/12 17:45:52;;;;;;;5.85;1.92;;;;;;;21.17;61.55;99945.09;5077009;27;96746;-87
2021/06/12 17:48:18;;;;;;;2.50;1.73;;;;;;;21.10;62.05;99939.44;5046047;27;99997;-86
2021/06/12 17:50:45;;;;;;;4.95;1.90;;;;;;;21.21;61.85;99942.06;5049249;27;100749;-87
2021/06/12 17:53:10;;;;;;;6.60;2.00;;;;;;;21.21;61.85;99938.53;5043003;27;96809;-86
2021/06/12 17:55:36;;;;;;;6.55;2.70;;;;;;;21.20;62.00;99950.19;5042454;27;97012;-89
2021/06/12 17:58:03;;;;;;;5.32;2.08;;;;;;;21.01;62.64;99970.41;5054169;27;99962;-88
2021/06/12 18:00:29;;;;;;;5.10;2.53;;;;;;;21.08;62.51;99983.22;5041471;27;101146;-92
2021/06/12 18:02:55;;;;;;;3.38;1.88;;;;;;;21.06;62.39;99986.06;5079121;27;97244;-92
2021/06/12 18:05:22;;;;;;;4.10;2.20;;;;;;;21.10;61.87;99986.63;5059791;27;97110;-83
2021/06/12 18:07:49;;;;;;;2.70;2.30;;;;;;;21.02;62.08;99993.44;5058357;27;100719;-87
2021/06/12 18:10:15;;;;;;;7.13;2.20;;;;;;;21.10;61.85;99994.63;5032860;27;100519;-87
2021/06/12 18:12:42;;;;;;;3.90;2.13;;;;;;;20.98;61.85;99994.69;5037039;27;97168;-89
2021/06/12 18:15:09;;;;;;;4.25;2.20;;;;;;;20.87;61.67;99984.03;5044041;27;97310;-85
2021/06/12 18:17:35;;;;;;;3.20;2.10;;;;;;;20.77;61.56;99994.63;5027467;27;101473;-90
2021/06/12 18:20:01;;;;;;;2.45;2.05;;;;;;;20.81;61.41;99997.88;5056690;27;100132;-89
2021/06/12 18:22:26;;;;;;;4.72;2.25;;;;;;;20.86;61.56;99997.53;5074605;27;96831;-84
2021/06/12 18:24:52;;;;;;;2.22;1.75;;;;;;;20.78;61.46;100011.47;5055091;27;97348;-88
2021/06/12 18:27:17;;;;;;;6.15;2.47;;;;;;;20.79;61.55;100006.00;5060113;27;100236;-89
2021/06/12 18:29:43;;;;;;;3.47;2.47;;;;;;;20.74;61.42;100004.66;5030997;27;101944;-87
2021/06/12 18:32:09;;;;;;;5.35;2.35;;;;;;;20.59;61.86;100006.78;5054509;27;96942;-88
2021/06/12 18:34:35;;;;;;;5.07;2.47;;;;;;;20.63;62.28;100002.06;5069960;27;96869;-87
2021/06/12 18:37:00;;;;;;;3.42;2.30;;;;;;;20.74;61.87;99994.88;5056556;27;98452;-86
2021/06/12 18:39:26;;;;;;;3.97;2.60;;;;;;;20.73;61.81;100003.00;5022283;27;101636;-85
2021/06/12 18:41:51;;;;;;;8.00;3.53;;;;;;;20.74;61.93;100008.22;5022608;27;96676;-86
2021/06/12 18:44:17;;;;;;;2.80;2.40;;;;;;;20.62;61.78;100011.00;5068226;27;97297;-87
2021/06/12 18:46:43;;;;;;;2.33;2.13;;;;;;;20.63;61.93;100021.56;5048120;27;100317;-86
2021/06/12 18:49:08;;;;;;;6.90;2.88;;;;;;;20.56;61.88;100012.34;5047467;27;101504;-85
2021/06/12 18:51:36;;;;;;;9.13;3.03;;;;;;;20.47;61.95;100008.56;5049889;27;98207;-86
2021/06/12 18:54:04;;;;;;;6.32;3.03;;;;;;;20.45;61.97;100015.88;5048186;27;97083;-81
2021/06/12 18:56:30;;;;;;;4.90;2.72;;;;;;;20.42;62.30;100007.25;5065761;27;101500;-80
2021/06/12 18:58:55;;;;;;;6.20;3.00;;;;;;;20.42;61.97;100017.91;5035484;27;100758;-84
2021/06/12 19:01:21;;;;;;;8.15;2.90;;;;;;;20.28;62.42;100008.38;5053868;27;96894;-85
2021/06/12 19:03:46;;;;;;;3.88;2.80;;;;;;;20.31;62.28;100022.28;5055562;27;97404;-84
2021/06/12 19:06:12;;;;;;;8.98;2.70;;;;;;;20.24;62.73;100023.72;5067999;27;97947;-85
2021/06/12 19:08:38;;;;;;;5.20;3.85;;;;;;;20.17;62.90;100011.88;5032066;27;101497;-85
2021/06/12 19:11:06;;;;;;;3.78;2.92;;;;;;;20.22;62.72;100016.84;5052489;27;97472;-85
2021/06/12 19:13:31;;;;;;;2.75;2.30;;;;;;;20.23;62.33;100023.88;5053547;27;97338;-85
2021/06/12 19:15:57;;;;;;;8.85;3.38;;;;;;;20.19;62.55;100038.38;5029558;27;101423;-86
2021/06/12 19:18:23;;;;;;;3.38;3.03;;;;;;;19.99;63.02;100048.81;5054694;27;100974;-86
2021/06/12 19:20:49;;;;;;;7.45;3.70;;;;;;;19.74;63.99;100049.81;5049107;27;96749;-83
2021/06/12 19:23:15;;;;;;;4.88;3.20;;;;;;;19.74;64.20;100044.50;5068305;27;96851;-85
2021/06/12 19:25:41;;;;;;;6.53;2.75;;;;;;;19.74;63.83;100051.66;5033543;27;101136;-85
2021/06/12 19:28:07;;;;;;;4.72;3.45;;;;;;;19.72;64.16;100062.41;5051027;27;101043;-85
2021/06/12 19:30:34;;;;;;;6.60;3.25;;;;;;;19.54;64.13;100056.63;5033080;27;97511;-83
2021/06/12 19:32:59;;;;;;;5.88;3.20;;;;;;;19.52;64.90;100060.38;5035694;27;96799;-85
2021/06/12 19:40:56;;;;;;;4.38;3.40;;;;;;;19.57;64.17;100053.72;5073700;27;96655;-85
2021/06/12 19:43:22;;;;;;;4.85;3.65;;;;;;;19.49;63.85;100065.94;5053882;27;97033;-85
2021/06/12 19:45:48;;;;;;;6.13;3.90;;;;;;;19.36;64.92;100074.00;5070947;27;98703;-84
2021/06/12 19:48:14;;;;;;;5.78;3.65;;;;;;;19.36;64.56;100071.31;5054625;27;97024;-84
2021/06/12 19:50:40;;;;;;;13.82;4.47;;;;;;;19.25;65.07;100077.44;5044459;27;96806;-85
2021/06/12 19:53:05;;;;;;;6.45;3.92;;;;;;;19.29;64.83;100084.25;5054754;27;97826;-85
2021/06/12 19:55:31;;;;;;;5.60;4.43;;;;;;;19.15;65.15;100084.41;5047735;27;101469;-86
2021/06/12 19:57:56;;;;;;;5.07;4.57;;;;;;;19.19;64.85;100101.84;5057077;27;100916;-86
2021/06/12 20:00:22;;;;;;;7.18;4.82;;;;;;;19.13;65.09;100092.50;5048070;27;97347;-86
2021/06/12 20:02:49;;;;;;;7.72;4.80;;;;;;;19.08;65.34;100092.00;5057826;27;97444;-86
2021/06/12 20:05:15;;;;;;;7.40;4.68;;;;;;;19.21;65.14;100103.44;5057387;27;98665;-86
2021/06/12 20:07:43;;;;;;;7.60;4.63;;;;;;;19.08;65.01;100100.00;5038658;27;102482;-86
2021/06/12 20:10:10;;;;;;;10.52;5.72;;;;;;;18.91;65.39;100101.22;5061683;27;96976;-86
2021/06/12 20:12:36;;;;;;;6.05;5.18;;;;;;;19.00;65.24;100099.69;5061105;27;96851;-86
2021/06/12 20:15:02;;;;;;;8.70;5.10;;;;;;;19.08;65.16;100104.44;5074217;27;98525;-86
2021/06/12 20:17:28;;;;;;;11.20;5.13;;;;;;;19.25;64.34;100111.19;5039721;27;100563;-84
2021/06/12 20:19:53;;;;;;;9.50;4.82;;;;;;;19.10;65.23;100106.03;5060139;27;96775;-86
2021/06/12 20:22:19;;;;;;;10.00;5.30;;;;;;;19.06;64.96;100098.41;5081103;27;96723;-85
2021/06/12 20:24:51;;;;;;;10.25;5.40;;;;;;;19.04;65.26;100106.47;5062669;27;101399;-85
2021/06/12 20:27:18;;;;;;;10.40;6.68;;;;;;;19.11;64.83;100106.88;5044598;27;101286;-86
2021/06/12 20:29:44;;;;;;;9.50;5.63;;;;;;;19.13;64.93;100107.63;5054833;27;97231;-87
2021/06/12 20:32:10;;;;;;;6.03;5.00;;;;;;;19.08;64.91;100112.41;5041227;27;97031;-87
2021/06/12 20:34:36;;;;;;;7.68;5.15;;;;;;;19.07;64.67;100116.03;5053957;27;97990;-86
2021/06/12 20:37:01;;;;;;;11.10;6.47;;;;;;;18.98;64.92;100128.19;5051031;27;101498;-87
2021/06/12 20:39:27;;;;;;;9.15;8.05;;;;;;;18.96;65.23;100130.09;5046694;27;97269;-86
2021/06/12 20:41:53;;;;;;;8.50;7.70;;;;;;;18.91;65.14;100127.81;5037986;27;97575;-87
2021/06/12 20:44:19;;;;;;;8.82;8.00;;;;;;;18.97;65.05;100132.69;5048670;27;100143;-89
2021/06/12 20:46:45;;;;;;;12.45;8.35;;;;;;;18.93;65.09;100125.00;5082293;27;98308;-87
2021/06/12 20:49:11;;;;;;;20.70;16.27;;;;;;;18.82;65.22;100133.78;5049471;27;96795;-88
2021/06/12 20:51:37;;;;;;;18.38;14.82;;;;;;;18.88;65.41;100143.09;5076578;27;97370;-87
2021/06/12 20:54:03;;;;;;;31.15;25.10;;;;;;;18.90;65.04;100128.75;5066472;27;96870;-87
2021/06/12 20:56:30;;;;;;;20.73;15.45;;;;;;;18.79;65.45;100131.31;5064224;27;99913;-87
2021/06/12 20:58:55;;;;;;;8.85;6.68;;;;;;;18.72;65.51;100135.34;5054766;27;96833;-88
2021/06/12 21:01:21;;;;;;;13.40;5.97;;;;;;;18.78;65.71;100137.59;5029500;27;97339;-88
2021/06/12 21:03:47;;;;;;;6.25;5.45;;;;;;;18.88;65.55;100135.13;5052453;27;100503;-88
2021/06/12 21:06:13;;;;;;;8.77;6.20;;;;;;;18.86;65.38;100135.25;5074474;27;98459;-88
2021/06/12 21:08:38;;;;;;;8.13;6.57;;;;;;;18.83;65.63;100140.78;5049394;27;97173;-88
2021/06/12 21:11:04;;;;;;;10.23;6.28;;;;;;;18.81;65.56;100140.03;5053944;27;97392;-86
2021/06/12 21:13:30;;;;;;;9.60;7.32;;;;;;;18.89;65.45;100160.78;5049382;27;101789;-88
2021/06/12 21:15:56;;;;;;;9.25;7.15;;;;;;;19.00;65.21;100182.16;5063377;27;98351;-88
2021/06/12 21:18:21;;;;;;;12.80;8.75;;;;;;;18.93;64.62;100197.66;5040400;27;97475;-87
2021/06/12 21:20:47;;;;;;;10.63;5.57;;;;;;;18.81;65.10;100233.09;5036888;27;97242;-88
2021/06/12 21:23:13;;;;;;;13.13;6.60;;;;;;;18.75;64.93;100238.84;5045659;27;101491;-88
2021/06/12 21:25:38;;;;;;;8.63;4.68;;;;;;;18.63;64.89;100234.34;5051256;27;101897;-90
2021/06/12 21:28:04;;;;;;;5.85;3.30;;;;;;;18.45;64.69;100226.69;5051093;27;96711;-87
2021/06/12 21:30:30;;;;;;;4.93;3.17;;;;;;;18.30;64.63;100210.00;5034696;27;97761;-88
2021/06/12 21:32:56;;;;;;;6.03;3.00;;;;;;;18.29;64.89;100210.91;5065093;27;102046;-88
2021/06/12 21:35:22;;;;;;;5.43;3.13;;;;;;;18.20;64.92;100213.34;5048550;27;99569;-87
2021/06/12 21:37:48;;;;;;;9.13;6.88;;;;;;;18.12;65.77;100219.19;5069082;27;97277;-87
2021/06/12 21:40:14;;;;;;;9.52;5.05;;;;;;;18.12;65.35;100219.19;5052136;27;97500;-88
2021/06/12 21:42:40;;;;;;;5.78;4.57;;;;;;;18.15;65.11;100221.66;5059930;27;101323;-88
2021/06/12 21:45:07;;;;;;;3.92;3.42;;;;;;;18.14;65.67;100217.28;5026826;27;97971;-88
2021/06/12 21:47:33;;;;;;;61.03;42.40;;;;;;;18.08;65.45;100218.53;5050930;27;97401;-88
2021/06/12 21:49:59;;;;;;;13.98;10.55;;;;;;;18.09;65.47;100214.06;5027119;27;96920;-88
2021/06/12 21:52:25;;;;;;;6.15;4.32;;;;;;;18.05;65.09;100213.44;5039443;27;101588;-89
2021/06/12 21:54:51;;;;;;;14.50;11.10;;;;;;;18.08;65.55;100212.38;5070299;27;97670;-88
2021/06/12 21:57:17;;;;;;;7.35;4.38;;;;;;;18.18;65.08;100223.22;5049544;27;97230;-88
2021/06/12 21:59:42;;;;;;;10.93;5.13;;;;;;;18.00;65.72;100214.69;5040728;27;96983;-89
2021/06/12 22:02:08;;;;;;;8.13;5.35;;;;;;;18.03;66.04;100225.97;5042656;27;101316;-89
2021/06/12 22:04:37;;;;;;;8.13;5.60;;;;;;;18.13;65.46;100220.06;5056618;27;97454;-88
2021/06/12 22:07:03;;;;;;;5.72;3.63;;;;;;;18.00;65.56;100220.84;5064924;27;97129;-88
2021/06/12 22:09:29;;;;;;;5.82;4.32;;;;;;;18.08;65.50;100225.66;5054110;27;96773;-87
2021/06/12 22:11:55;;;;;;;3.22;2.60;;;;;;;18.10;65.32;100234.38;5068373;27;98577;-89
2021/06/12 22:14:21;;;;;;;4.10;3.28;;;;;;;18.13;64.84;100228.88;5042162;27;100922;-89
2021/06/12 22:16:49;;;;;;;5.43;2.28;;;;;;;17.94;64.98;100226.56;5056684;27;97982;-88
2021/06/12 22:19:18;;;;;;;4.70;2.20;;;;;;;17.88;65.53;100219.84;5056188;27;97386;-89
2021/06/12 22:21:47;;;;;;;4.85;2.33;;;;;;;17.84;65.23;100218.38;5045751;27;99996;-90
2021/06/12 22:24:17;;;;;;;5.75;2.00;;;;;;;17.88;64.55;100219.00;5053164;27;101093;-89
2021/06/12 22:26:45;;;;;;;3.05;1.73;;;;;;;17.88;64.98;100226.97;5050336;27;97391;-89
2021/06/12 22:29:12;;;;;;;53.60;47.75;;;;;;;17.90;65.40;100234.84;5035365;27;96895;-80
2021/06/12 22:31:39;;;;;;;10.32;6.80;;;;;;;17.72;65.54;100237.72;5052162;27;100925;-80
2021/06/12 22:34:05;;;;;;;6.50;2.72;;;;;;;17.68;65.59;100244.16;5040006;27;101601;-80
2021/06/12 22:36:31;;;;;;;3.13;2.40;;;;;;;17.59;65.98;100245.63;5040372;27;96917;-79
2021/06/12 22:38:57;;;;;;;4.13;2.17;;;;;;;17.47;66.60;100242.91;5040318;27;97378;-77
2021/06/12 22:41:22;;;;;;;2.97;1.70;;;;;;;17.46;66.61;100251.84;5024999;27;101112;-77
2021/06/12 22:43:48;;;;;;;3.53;1.85;;;;;;;17.51;66.13;100253.25;5048556;27;101892;-80
2021/06/12 22:46:14;;;;;;;2.42;1.60;;;;;;;17.57;66.07;100262.59;5049509;27;96875;-78
2021/06/12 22:48:40;;;;;;;5.88;2.00;;;;;;;17.48;66.63;100263.19;5031120;27;97001;-78
2021/06/12 22:51:05;;;;;;;6.82;1.70;;;;;;;17.47;66.23;100267.63;5050700;27;101328;-77
2021/06/12 22:53:31;;;;;;;3.83;1.95;;;;;;;17.38;66.28;100270.88;5043722;27;97653;-77
2021/06/12 22:55:57;;;;;;;4.78;1.77;;;;;;;17.41;66.58;100276.84;5050347;27;96700;-77
2021/06/12 22:58:23;;;;;;;3.97;2.80;;;;;;;17.39;66.59;100278.75;5046998;27;96778;-77
2021/06/12 23:00:49;;;;;;;5.15;2.85;;;;;;;17.36;66.64;100278.91;5058958;27;98721;-77
2021/06/12 23:03:14;;;;;;;14.27;12.00;;;;;;;17.36;67.00;100278.06;5052772;27;100664;-77
2021/06/12 23:05:40;;;;;;;11.90;5.38;;;;;;;17.37;66.92;100282.44;5059180;27;96726;-78
2021/06/12 23:08:06;;;;;;;10.00;5.25;;;;;;;17.40;66.84;100284.91;5043598;27;96997;-77
2021/06/12 23:10:32;;;;;;;30.92;20.67;;;;;;;17.35;66.52;100281.69;5059630;27;97574;-77
2021/06/12 23:12:58;;;;;;;5.18;2.40;;;;;;;17.42;66.59;100288.28;5052130;27;101674;-77
2021/06/12 23:15:23;;;;;;;5.05;2.47;;;;;;;17.39;66.78;100289.38;5029222;27;97255;-77
2021/06/12 23:17:49;;;;;;;4.85;2.30;;;;;;;17.39;66.92;100293.78;5042560;27;96859;-81
2021/06/12 23:20:16;;;;;;;4.18;2.67;;;;;;;17.37;66.95;100298.38;5026693;27;101934;-79
2021/06/12 23:22:42;;;;;;;7.10;2.80;;;;;;;17.38;67.20;100295.59;5042699;27;97840;-79
2021/06/12 23:25:10;;;;;;;4.82;2.35;;;;;;;17.33;67.50;100295.03;5046125;27;96980;-78
2021/06/12 23:27:35;;;;;;;3.63;2.53;;;;;;;17.36;67.60;100292.19;5063382;27;97376;-81
2021/06/12 23:30:02;;;;;;;8.55;2.63;;;;;;;17.42;66.99;100290.94;5075807;27;99422;-78
2021/06/12 23:32:28;;;;;;;6.18;2.75;;;;;;;17.38;67.43;100298.25;5063191;27;101023;-78
2021/06/12 23:34:54;;;;;;;10.38;2.58;;;;;;;17.37;67.74;100291.25;5060188;27;97014;-78
2021/06/12 23:37:19;;;;;;;4.03;2.47;;;;;;;17.39;67.53;100299.09;5060265;27;97097;-78
2021/06/12 23:39:45;;;;;;;5.40;3.35;;;;;;;17.37;67.06;100299.22;5076991;27;97976;-78
2021/06/12 23:42:11;;;;;;;5.85;2.70;;;;;;;17.39;66.93;100302.63;5045997;27;101187;-78
2021/06/12 23:44:36;;;;;;;7.03;2.45;;;;;;;17.35;66.85;100300.25;5060380;27;96958;-80
2021/06/12 23:47:02;;;;;;;5.20;2.47;;;;;;;17.34;67.13;100304.72;5059544;27;96803;-79
2021/06/12 23:49:28;;;;;;;8.35;2.53;;;;;;;17.35;67.07;100294.94;5042549;27;101492;-78
2021/06/12 23:51:54;;;;;;;10.68;5.10;;;;;;;17.29;67.47;100301.50;5066516;27;101031;-78
2021/06/12 23:54:20;;;;;;;10.55;7.90;;;;;;;17.23;67.14;100311.63;5059891;27;96831;-78
2021/06/12 23:56:45;;;;;;;12.15;8.32;;;;;;;17.16;67.16;100305.84;5050709;27;96834;-80
2021/06/12 23:59:11;;;;;;;9.45;4.43;;;;;;;17.21;67.44;100314.38;5062436;27;101268;-78
